createdAt,value
2018-09-06T00:00:12.860Z,21.12
2018-09-06T00:01:12.924Z,21.12
2018-09-06T00:02:12.984Z,21.07
2018-09-06T00:03:13.052Z,21.09
2018-09-06T00:04:13.384Z,21.02
2018-09-06T00:05:13.184Z,21.03
2018-09-06T00:06:13.252Z,20.99
2018-09-06T00:07:13.317Z,20.95
2018-09-06T00:08:13.380Z,21.00
2018-09-06T00:09:13.452Z,20.96
2018-09-06T00:10:13.516Z,20.93
2018-09-06T00:11:13.580Z,20.97
2018-09-06T00:12:13.644Z,20.99
2018-09-06T00:13:13.708Z,20.96
2018-09-06T00:14:13.783Z,21.00
2018-09-06T00:15:13.848Z,20.99
2018-09-06T00:16:13.907Z,20.95
2018-09-06T00:17:13.973Z,20.97
2018-09-06T00:18:14.037Z,20.93
2018-09-06T00:19:14.196Z,20.90
2018-09-06T00:20:14.169Z,20.92
2018-09-06T00:21:14.232Z,20.84
2018-09-06T00:22:14.300Z,20.81
2018-09-06T00:23:14.368Z,20.84
2018-09-06T00:24:14.437Z,20.80
2018-09-06T00:25:14.512Z,20.85
2018-09-06T00:26:14.561Z,20.87
2018-09-06T00:27:14.629Z,20.82
2018-09-06T00:28:14.701Z,20.80
2018-09-06T00:29:14.765Z,20.84
2018-09-06T00:30:14.834Z,20.90
2018-09-06T00:31:14.893Z,20.82
2018-09-06T00:32:14.957Z,20.85
2018-09-06T00:33:15.021Z,20.74
2018-09-06T00:34:15.359Z,20.75
2018-09-06T00:35:15.153Z,20.77
2018-09-06T00:36:15.226Z,20.70
2018-09-06T00:37:15.285Z,20.66
2018-09-06T00:38:15.353Z,20.75
2018-09-06T00:39:15.425Z,20.70
2018-09-06T00:40:15.489Z,20.72
2018-09-06T00:41:15.550Z,20.72
2018-09-06T00:42:15.614Z,20.62
2018-09-06T00:43:15.681Z,20.70
2018-09-06T00:44:15.753Z,20.74
2018-09-06T00:45:15.817Z,20.67
2018-09-06T00:46:15.878Z,20.77
2018-09-06T00:47:15.942Z,20.69
2018-09-06T00:48:16.011Z,20.67
2018-09-06T00:49:16.342Z,20.67
2018-09-06T00:50:16.146Z,20.65
2018-09-06T00:51:16.206Z,20.65
2018-09-06T00:52:16.270Z,20.70
2018-09-06T00:53:16.338Z,20.69
2018-09-06T00:54:16.411Z,20.69
2018-09-06T00:55:16.478Z,20.72
2018-09-06T00:56:16.534Z,20.69
2018-09-06T00:57:16.602Z,20.69
2018-09-06T00:58:16.667Z,20.77
2018-09-06T00:59:16.743Z,20.75
2018-09-06T01:00:16.805Z,20.69
2018-09-06T01:01:16.862Z,20.75
2018-09-06T01:02:16.931Z,20.72
2018-09-06T01:03:16.998Z,20.70
2018-09-06T01:04:17.067Z,20.74
2018-09-06T01:05:17.134Z,20.69
2018-09-06T01:06:17.192Z,20.75
2018-09-06T01:07:17.259Z,20.78
2018-09-06T01:08:17.322Z,20.82
2018-09-06T01:09:17.395Z,20.78
2018-09-06T01:10:17.463Z,20.78
2018-09-06T01:11:17.519Z,20.84
2018-09-06T01:12:17.587Z,20.85
2018-09-06T01:13:17.651Z,20.87
2018-09-06T01:14:17.731Z,20.90
2018-09-06T01:15:17.791Z,20.80
2018-09-06T01:16:17.847Z,20.84
2018-09-06T01:17:17.915Z,20.82
2018-09-06T01:18:17.991Z,20.78
2018-09-06T01:19:18.051Z,20.87
2018-09-06T01:20:18.119Z,20.88
2018-09-06T01:21:18.175Z,20.88
2018-09-06T01:22:18.243Z,20.93
2018-09-06T01:23:18.308Z,20.88
2018-09-06T01:24:18.390Z,20.92
2018-09-06T01:25:18.443Z,20.95
2018-09-06T01:26:18.507Z,20.90
2018-09-06T01:27:18.572Z,20.96
2018-09-06T01:28:18.636Z,21.00
2018-09-06T01:29:18.707Z,20.97
2018-09-06T01:30:18.776Z,20.96
2018-09-06T01:31:18.836Z,20.95
2018-09-06T01:32:18.900Z,20.97
2018-09-06T01:33:18.964Z,20.96
2018-09-06T01:34:19.036Z,20.92
2018-09-06T01:35:19.104Z,20.97
2018-09-06T01:36:19.160Z,20.97
2018-09-06T01:37:19.228Z,21.00
2018-09-06T01:38:19.294Z,20.90
2018-09-06T01:39:19.536Z,20.81
2018-09-06T01:40:19.424Z,20.84
2018-09-06T01:41:19.496Z,20.82
2018-09-06T01:42:19.556Z,20.82
2018-09-06T01:43:19.624Z,20.82
2018-09-06T01:44:19.696Z,20.77
2018-09-06T01:45:19.760Z,20.77
2018-09-06T01:46:19.820Z,20.74
2018-09-06T01:47:19.884Z,20.78
2018-09-06T01:48:19.949Z,20.74
2018-09-06T01:49:20.025Z,20.77
2018-09-06T01:50:20.089Z,20.69
2018-09-06T01:51:20.150Z,20.72
2018-09-06T01:52:20.215Z,20.70
2018-09-06T01:53:20.281Z,20.74
2018-09-06T01:54:20.353Z,20.74
2018-09-06T01:55:20.421Z,20.66
2018-09-06T01:56:20.477Z,20.67
2018-09-06T01:57:20.541Z,20.69
2018-09-06T01:58:20.609Z,20.67
2018-09-06T01:59:20.680Z,20.60
2018-09-06T02:00:20.745Z,20.59
2018-09-06T02:01:20.805Z,20.62
2018-09-06T02:02:20.869Z,20.60
2018-09-06T02:03:20.937Z,20.56
2018-09-06T02:04:21.012Z,20.52
2018-09-06T02:05:21.074Z,20.48
2018-09-06T02:06:21.137Z,20.48
2018-09-06T02:07:21.201Z,20.34
2018-09-06T02:08:21.265Z,20.37
2018-09-06T02:09:21.337Z,20.37
2018-09-06T02:10:21.405Z,20.37
2018-09-06T02:11:21.461Z,20.39
2018-09-06T02:12:21.527Z,20.36
2018-09-06T02:13:21.593Z,20.37
2018-09-06T02:14:21.665Z,20.28
2018-09-06T02:15:21.730Z,20.25
2018-09-06T02:16:21.793Z,20.19
2018-09-06T02:17:21.854Z,20.16
2018-09-06T02:18:21.921Z,20.22
2018-09-06T02:19:21.994Z,20.14
2018-09-06T02:20:22.058Z,20.16
2018-09-06T02:21:22.118Z,20.06
2018-09-06T02:22:22.182Z,20.00
2018-09-06T02:23:22.250Z,20.11
2018-09-06T02:24:22.344Z,20.13
2018-09-06T02:25:22.402Z,20.03
2018-09-06T02:26:22.446Z,20.09
2018-09-06T02:27:22.510Z,20.04
2018-09-06T02:28:22.578Z,19.89
2018-09-06T02:29:22.642Z,19.91
2018-09-06T02:30:22.720Z,19.96
2018-09-06T02:31:22.779Z,20.00
2018-09-06T02:32:22.838Z,20.04
2018-09-06T02:33:22.903Z,19.91
2018-09-06T02:34:22.970Z,19.91
2018-09-06T02:35:23.043Z,19.89
2018-09-06T02:36:23.107Z,20.02
2018-09-06T02:37:23.166Z,19.88
2018-09-06T02:38:23.234Z,19.89
2018-09-06T02:39:23.298Z,19.96
2018-09-06T02:40:23.367Z,19.94
2018-09-06T02:41:23.435Z,20.02
2018-09-06T02:42:23.495Z,19.95
2018-09-06T02:43:23.558Z,19.96
2018-09-06T02:44:23.622Z,19.95
2018-09-06T02:45:23.695Z,19.92
2018-09-06T02:46:23.762Z,19.96
2018-09-06T02:47:23.819Z,19.95
2018-09-06T02:48:23.886Z,19.91
2018-09-06T02:49:23.951Z,19.99
2018-09-06T02:50:24.023Z,19.94
2018-09-06T02:51:24.095Z,19.95
2018-09-06T02:52:24.147Z,19.91
2018-09-06T02:53:24.215Z,19.91
2018-09-06T02:54:24.282Z,19.95
2018-09-06T02:55:24.351Z,19.92
2018-09-06T02:56:24.422Z,19.82
2018-09-06T02:57:24.475Z,19.81
2018-09-06T02:58:24.539Z,19.81
2018-09-06T02:59:24.607Z,19.89
2018-09-06T03:00:24.674Z,19.73
2018-09-06T03:01:24.747Z,19.76
2018-09-06T03:02:24.806Z,19.76
2018-09-06T03:03:24.867Z,19.77
2018-09-06T03:04:24.931Z,19.81
2018-09-06T03:05:25.004Z,19.74
2018-09-06T03:06:25.076Z,19.74
2018-09-06T03:07:25.131Z,19.84
2018-09-06T03:08:25.195Z,19.74
2018-09-06T03:09:25.259Z,19.76
2018-09-06T03:10:25.323Z,19.81
2018-09-06T03:11:25.495Z,19.81
2018-09-06T03:12:25.455Z,19.67
2018-09-06T03:13:25.519Z,19.64
2018-09-06T03:14:25.588Z,19.64
2018-09-06T03:15:25.713Z,19.62
2018-09-06T03:16:25.724Z,19.58
2018-09-06T03:17:25.789Z,19.51
2018-09-06T03:18:25.852Z,19.55
2018-09-06T03:19:25.911Z,19.41
2018-09-06T03:20:25.979Z,19.48
2018-09-06T03:21:26.052Z,19.47
2018-09-06T03:22:26.116Z,19.40
2018-09-06T03:23:26.176Z,19.45
2018-09-06T03:24:26.239Z,19.45
2018-09-06T03:25:26.304Z,19.36
2018-09-06T03:26:26.380Z,19.37
2018-09-06T03:27:26.445Z,19.37
2018-09-06T03:28:26.500Z,19.39
2018-09-06T03:29:26.565Z,19.30
2018-09-06T03:30:26.632Z,19.33
2018-09-06T03:31:26.704Z,19.34
2018-09-06T03:32:26.769Z,19.37
2018-09-06T03:33:26.829Z,19.34
2018-09-06T03:34:26.892Z,19.33
2018-09-06T03:35:26.956Z,19.37
2018-09-06T03:36:27.029Z,19.44
2018-09-06T03:37:27.097Z,19.45
2018-09-06T03:38:27.153Z,19.41
2018-09-06T03:39:27.220Z,19.31
2018-09-06T03:40:27.285Z,19.39
2018-09-06T03:41:27.358Z,19.34
2018-09-06T03:42:27.421Z,19.33
2018-09-06T03:43:27.481Z,19.34
2018-09-06T03:44:27.545Z,19.34
2018-09-06T03:45:27.609Z,19.31
2018-09-06T03:46:27.681Z,19.34
2018-09-06T03:47:27.754Z,19.41
2018-09-06T03:48:27.805Z,19.40
2018-09-06T03:49:27.869Z,19.40
2018-09-06T03:50:27.941Z,19.40
2018-09-06T03:51:28.010Z,19.40
2018-09-06T03:52:28.077Z,19.44
2018-09-06T03:53:28.134Z,19.39
2018-09-06T03:54:28.198Z,19.44
2018-09-06T03:55:28.261Z,19.33
2018-09-06T03:56:28.326Z,19.36
2018-09-06T03:57:28.406Z,19.33
2018-09-06T03:58:28.458Z,19.22
2018-09-06T03:59:28.526Z,19.16
2018-09-06T04:00:28.590Z,19.18
2018-09-06T04:01:28.654Z,19.12
2018-09-06T04:02:28.726Z,19.16
2018-09-06T04:03:28.790Z,19.18
2018-09-06T04:04:28.849Z,19.16
2018-09-06T04:05:28.914Z,19.12
2018-09-06T04:06:28.989Z,19.18
2018-09-06T04:07:29.054Z,19.21
2018-09-06T04:08:29.118Z,19.15
2018-09-06T04:09:29.174Z,19.12
2018-09-06T04:10:29.242Z,19.11
2018-09-06T04:11:29.318Z,19.11
2018-09-06T04:12:29.399Z,19.11
2018-09-06T04:13:29.438Z,19.09
2018-09-06T04:14:29.502Z,19.14
2018-09-06T04:15:29.566Z,19.12
2018-09-06T04:16:29.631Z,18.92
2018-09-06T04:17:29.702Z,18.99
2018-09-06T04:18:29.842Z,18.92
2018-09-06T04:19:29.827Z,18.99
2018-09-06T04:20:29.895Z,18.95
2018-09-06T04:21:29.960Z,18.90
2018-09-06T04:22:30.031Z,18.93
2018-09-06T04:23:30.098Z,18.96
2018-09-06T04:24:30.155Z,18.90
2018-09-06T04:25:30.220Z,18.99
2018-09-06T04:26:30.283Z,18.93
2018-09-06T04:27:30.356Z,18.89
2018-09-06T04:28:30.419Z,18.93
2018-09-06T04:29:30.479Z,18.90
2018-09-06T04:30:30.543Z,18.90
2018-09-06T04:31:30.612Z,18.95
2018-09-06T04:32:30.683Z,18.92
2018-09-06T04:33:30.747Z,18.86
2018-09-06T04:34:30.803Z,18.95
2018-09-06T04:35:30.964Z,18.89
2018-09-06T04:36:30.936Z,18.74
2018-09-06T04:37:31.008Z,18.93
2018-09-06T04:38:31.073Z,18.90
2018-09-06T04:39:31.131Z,18.89
2018-09-06T04:40:31.199Z,18.93
2018-09-06T04:41:31.263Z,18.93
2018-09-06T04:42:31.323Z,19.00
2018-09-06T04:43:31.656Z,18.96
2018-09-06T04:44:31.456Z,18.93
2018-09-06T04:45:31.525Z,18.93
2018-09-06T04:46:31.585Z,18.98
2018-09-06T04:47:31.652Z,19.00
2018-09-06T04:48:31.724Z,18.98
2018-09-06T04:49:31.788Z,18.95
2018-09-06T04:50:31.844Z,18.96
2018-09-06T04:51:31.912Z,18.93
2018-09-06T04:52:31.977Z,18.95
2018-09-06T04:53:32.049Z,18.96
2018-09-06T04:54:32.113Z,18.99
2018-09-06T04:55:32.172Z,18.93
2018-09-06T04:56:32.238Z,18.96
2018-09-06T04:57:32.300Z,18.96
2018-09-06T04:58:32.450Z,18.93
2018-09-06T04:59:32.436Z,18.92
2018-09-06T05:00:32.497Z,18.92
2018-09-06T05:01:32.560Z,18.90
2018-09-06T05:02:32.626Z,18.90
2018-09-06T05:03:32.701Z,18.93
2018-09-06T05:04:32.765Z,18.93
2018-09-06T05:05:32.825Z,18.96
2018-09-06T05:06:32.889Z,18.95
2018-09-06T05:07:32.953Z,18.95
2018-09-06T05:08:33.016Z,18.93
2018-09-06T05:09:33.105Z,18.80
2018-09-06T05:10:33.152Z,18.93
2018-09-06T05:11:33.217Z,18.88
2018-09-06T05:12:33.277Z,18.78
2018-09-06T05:13:33.340Z,18.84
2018-09-06T05:14:33.412Z,18.92
2018-09-06T05:15:33.480Z,18.89
2018-09-06T05:16:33.537Z,18.90
2018-09-06T05:17:33.600Z,18.93
2018-09-06T05:18:33.672Z,18.80
2018-09-06T05:19:33.741Z,18.86
2018-09-06T05:20:33.805Z,18.81
2018-09-06T05:21:33.861Z,18.88
2018-09-06T05:22:33.929Z,18.88
2018-09-06T05:23:34.004Z,18.83
2018-09-06T05:24:34.057Z,18.88
2018-09-06T05:25:34.145Z,18.80
2018-09-06T05:26:34.189Z,18.78
2018-09-06T05:27:34.253Z,18.78
2018-09-06T05:28:34.318Z,18.89
2018-09-06T05:29:34.381Z,18.81
2018-09-06T05:30:34.455Z,18.80
2018-09-06T05:31:34.525Z,18.81
2018-09-06T05:32:34.577Z,18.81
2018-09-06T05:33:34.641Z,18.80
2018-09-06T05:34:34.709Z,18.83
2018-09-06T05:35:34.785Z,18.83
2018-09-06T05:36:34.869Z,18.83
2018-09-06T05:37:34.906Z,18.80
2018-09-06T05:38:34.975Z,18.88
2018-09-06T05:39:35.034Z,18.93
2018-09-06T05:40:35.114Z,18.95
2018-09-06T05:41:35.166Z,18.81
2018-09-06T05:42:35.230Z,18.86
2018-09-06T05:43:35.293Z,18.84
2018-09-06T05:44:35.358Z,18.95
2018-09-06T05:45:35.430Z,18.92
2018-09-06T05:46:35.505Z,18.93
2018-09-06T05:47:35.561Z,18.92
2018-09-06T05:48:35.620Z,18.93
2018-09-06T05:49:35.686Z,18.92
2018-09-06T05:50:35.758Z,18.93
2018-09-06T05:51:35.823Z,18.95
2018-09-06T05:52:35.878Z,18.96
2018-09-06T05:53:36.126Z,18.96
2018-09-06T05:54:36.010Z,18.93
2018-09-06T05:55:36.345Z,18.92
2018-09-06T05:56:36.138Z,18.90
2018-09-06T05:57:36.206Z,18.99
2018-09-06T05:58:36.270Z,18.93
2018-09-06T05:59:36.362Z,18.90
2018-09-06T06:00:36.406Z,18.96
2018-09-06T06:01:36.475Z,18.95
2018-09-06T06:02:36.531Z,18.95
2018-09-06T06:03:36.598Z,19.00
2018-09-06T06:04:36.662Z,19.02
2018-09-06T06:05:36.738Z,19.14
2018-09-06T06:06:36.803Z,19.14
2018-09-06T06:07:36.859Z,19.11
2018-09-06T06:08:36.923Z,19.08
2018-09-06T06:09:36.986Z,19.14
2018-09-06T06:10:37.059Z,19.22
2018-09-06T06:11:37.122Z,19.19
2018-09-06T06:12:37.183Z,19.16
2018-09-06T06:13:37.248Z,19.21
2018-09-06T06:14:37.321Z,19.19
2018-09-06T06:15:37.387Z,19.16
2018-09-06T06:16:37.451Z,19.21
2018-09-06T06:17:37.507Z,19.21
2018-09-06T06:18:37.575Z,19.21
2018-09-06T06:19:37.640Z,19.08
2018-09-06T06:20:37.713Z,19.08
2018-09-06T06:21:37.779Z,19.11
2018-09-06T06:22:37.836Z,19.09
2018-09-06T06:23:37.903Z,19.19
2018-09-06T06:24:37.964Z,19.18
2018-09-06T06:25:38.036Z,19.19
2018-09-06T06:26:38.105Z,19.22
2018-09-06T06:27:38.160Z,19.22
2018-09-06T06:28:38.224Z,19.14
2018-09-06T06:29:38.292Z,19.14
2018-09-06T06:30:38.623Z,19.12
2018-09-06T06:31:38.420Z,19.12
2018-09-06T06:32:38.488Z,19.27
2018-09-06T06:33:38.552Z,19.22
2018-09-06T06:34:38.616Z,19.09
2018-09-06T06:35:38.688Z,19.15
2018-09-06T06:36:38.751Z,19.18
2018-09-06T06:37:38.812Z,19.14
2018-09-06T06:38:38.877Z,19.12
2018-09-06T06:39:38.948Z,19.08
2018-09-06T06:40:39.016Z,19.08
2018-09-06T06:41:39.080Z,19.08
2018-09-06T06:42:39.140Z,19.11
2018-09-06T06:43:39.204Z,19.08
2018-09-06T06:44:39.268Z,19.11
2018-09-06T06:45:39.596Z,19.12
2018-09-06T06:46:39.400Z,19.16
2018-09-06T06:47:39.465Z,19.12
2018-09-06T06:48:39.532Z,19.26
2018-09-06T06:49:39.596Z,19.19
2018-09-06T06:50:39.668Z,19.29
2018-09-06T06:51:39.732Z,19.19
2018-09-06T06:52:39.791Z,19.19
2018-09-06T06:53:39.856Z,19.22
2018-09-06T06:54:39.920Z,19.22
2018-09-06T06:55:39.992Z,19.27
2018-09-06T06:56:40.056Z,19.18
2018-09-06T06:57:40.117Z,19.33
2018-09-06T06:58:40.212Z,19.27
2018-09-06T06:59:40.249Z,19.36
2018-09-06T07:00:40.584Z,19.39
2018-09-06T07:01:40.380Z,19.36
2018-09-06T07:02:40.440Z,19.41
2018-09-06T07:03:40.509Z,19.48
2018-09-06T07:04:40.647Z,19.47
2018-09-06T07:05:40.648Z,19.37
2018-09-06T07:06:40.775Z,19.48
2018-09-06T07:07:40.768Z,19.54
2018-09-06T07:08:40.834Z,19.52
2018-09-06T07:09:40.904Z,19.51
2018-09-06T07:10:40.973Z,19.47
2018-09-06T07:11:41.037Z,19.51
2018-09-06T07:12:41.093Z,19.49
2018-09-06T07:13:41.161Z,19.48
2018-09-06T07:14:41.224Z,19.47
2018-09-06T07:15:41.381Z,19.51
2018-09-06T07:16:41.357Z,19.48
2018-09-06T07:17:41.425Z,19.49
2018-09-06T07:18:41.583Z,19.51
2018-09-06T07:19:41.553Z,19.56
2018-09-06T07:20:41.626Z,19.48
2018-09-06T07:21:41.689Z,19.48
2018-09-06T07:22:41.749Z,19.52
2018-09-06T07:23:41.813Z,19.58
2018-09-06T07:24:41.877Z,19.63
2018-09-06T07:25:41.999Z,19.59
2018-09-06T07:26:42.017Z,19.59
2018-09-06T07:27:42.077Z,19.62
2018-09-06T07:28:42.142Z,19.64
2018-09-06T07:29:42.205Z,19.64
2018-09-06T07:30:42.270Z,19.70
2018-09-06T07:31:42.446Z,19.67
2018-09-06T07:32:42.402Z,19.63
2018-09-06T07:33:42.469Z,19.69
2018-09-06T07:34:42.538Z,19.63
2018-09-06T07:35:42.601Z,19.56
2018-09-06T07:36:42.670Z,19.62
2018-09-06T07:37:42.734Z,19.69
2018-09-06T07:38:42.794Z,19.77
2018-09-06T07:39:42.862Z,19.81
2018-09-06T07:40:42.927Z,19.67
2018-09-06T07:41:42.998Z,19.71
2018-09-06T07:42:43.062Z,19.67
2018-09-06T07:43:43.122Z,19.67
2018-09-06T07:44:43.187Z,19.69
2018-09-06T07:45:43.254Z,19.67
2018-09-06T07:46:43.360Z,19.77
2018-09-06T07:47:43.398Z,19.66
2018-09-06T07:48:43.451Z,19.63
2018-09-06T07:49:43.514Z,19.66
2018-09-06T07:50:43.579Z,19.64
2018-09-06T07:51:43.664Z,19.67
2018-09-06T07:52:43.719Z,19.79
2018-09-06T07:53:43.783Z,19.77
2018-09-06T07:54:43.842Z,19.88
2018-09-06T07:55:43.910Z,19.81
2018-09-06T07:56:43.975Z,19.82
2018-09-06T07:57:44.039Z,19.96
2018-09-06T07:58:44.371Z,19.95
2018-09-06T07:59:44.174Z,20.06
2018-09-06T08:00:44.238Z,20.02
2018-09-06T08:01:44.322Z,20.02
2018-09-06T08:02:44.367Z,20.06
2018-09-06T08:03:44.440Z,20.06
2018-09-06T08:04:44.509Z,20.16
2018-09-06T08:05:44.563Z,20.14
2018-09-06T08:06:44.627Z,20.18
2018-09-06T08:07:44.695Z,20.24
2018-09-06T08:08:44.767Z,20.19
2018-09-06T08:09:44.831Z,20.31
2018-09-06T08:10:44.947Z,20.26
2018-09-06T08:11:44.955Z,20.28
2018-09-06T08:12:45.024Z,20.25
2018-09-06T08:13:45.106Z,20.29
2018-09-06T08:14:45.156Z,20.24
2018-09-06T08:15:45.220Z,20.16
2018-09-06T08:16:45.283Z,20.18
2018-09-06T08:17:45.352Z,20.19
2018-09-06T08:18:45.447Z,20.18
2018-09-06T08:19:45.488Z,20.16
2018-09-06T08:20:45.548Z,20.14
2018-09-06T08:21:45.612Z,20.14
2018-09-06T08:22:45.682Z,20.18
2018-09-06T08:23:45.752Z,20.10
2018-09-06T08:24:45.816Z,20.02
2018-09-06T08:25:45.876Z,20.04
2018-09-06T08:26:45.944Z,20.07
2018-09-06T08:27:46.008Z,20.11
2018-09-06T08:28:46.340Z,20.06
2018-09-06T08:29:46.140Z,20.06
2018-09-06T08:30:46.306Z,20.00
2018-09-06T08:31:46.272Z,20.06
2018-09-06T08:32:46.336Z,20.11
2018-09-06T08:33:46.408Z,20.10
2018-09-06T08:34:46.477Z,20.13
2018-09-06T08:35:46.532Z,20.13
2018-09-06T08:36:46.658Z,20.14
2018-09-06T08:37:46.664Z,20.18
2018-09-06T08:38:46.736Z,20.06
2018-09-06T08:39:46.804Z,20.04
2018-09-06T08:40:46.859Z,20.03
2018-09-06T08:41:46.928Z,20.06
2018-09-06T08:42:46.992Z,20.02
2018-09-06T08:43:47.068Z,20.04
2018-09-06T08:44:47.132Z,20.02
2018-09-06T08:45:47.189Z,19.99
2018-09-06T08:46:47.256Z,20.09
2018-09-06T08:47:47.325Z,19.99
2018-09-06T08:48:47.393Z,19.95
2018-09-06T08:49:47.460Z,19.84
2018-09-06T08:50:47.524Z,19.86
2018-09-06T08:51:47.584Z,19.86
2018-09-06T08:52:47.649Z,19.86
2018-09-06T08:53:47.725Z,19.82
2018-09-06T08:54:47.793Z,19.76
2018-09-06T08:55:47.845Z,19.85
2018-09-06T08:56:47.912Z,19.77
2018-09-06T08:57:47.976Z,19.74
2018-09-06T08:58:48.050Z,19.77
2018-09-06T08:59:48.116Z,19.70
2018-09-06T09:00:48.174Z,19.70
2018-09-06T09:01:48.241Z,19.70
2018-09-06T09:02:48.363Z,19.67
2018-09-06T09:03:48.483Z,19.74
2018-09-06T09:04:48.440Z,19.77
2018-09-06T09:05:48.554Z,19.74
2018-09-06T09:06:48.575Z,19.74
2018-09-06T09:07:48.633Z,19.71
2018-09-06T09:08:48.709Z,19.74
2018-09-06T09:09:48.774Z,19.76
2018-09-06T09:10:48.829Z,19.77
2018-09-06T09:11:48.894Z,19.69
2018-09-06T09:12:48.962Z,19.67
2018-09-06T09:13:49.034Z,19.69
2018-09-06T09:14:49.099Z,19.67
2018-09-06T09:15:49.158Z,19.64
2018-09-06T09:16:49.222Z,19.69
2018-09-06T09:17:49.290Z,19.81
2018-09-06T09:18:49.361Z,19.79
2018-09-06T09:19:49.426Z,19.74
2018-09-06T09:20:49.486Z,19.79
2018-09-06T09:21:49.560Z,19.71
2018-09-06T09:22:49.615Z,19.71
2018-09-06T09:23:49.686Z,19.74
2018-09-06T09:24:49.754Z,19.79
2018-09-06T09:25:49.810Z,19.79
2018-09-06T09:26:49.878Z,19.79
2018-09-06T09:27:49.946Z,19.76
2018-09-06T09:28:50.018Z,19.84
2018-09-06T09:29:50.083Z,19.71
2018-09-06T09:30:50.139Z,19.74
2018-09-06T09:31:50.206Z,19.71
2018-09-06T09:32:50.273Z,19.74
2018-09-06T09:33:50.343Z,19.71
2018-09-06T09:34:50.407Z,19.71
2018-09-06T09:35:50.522Z,19.64
2018-09-06T09:36:50.530Z,19.63
2018-09-06T09:37:50.599Z,19.64
2018-09-06T09:38:50.671Z,19.66
2018-09-06T09:39:50.735Z,19.59
2018-09-06T09:40:50.796Z,19.62
2018-09-06T09:41:50.863Z,19.66
2018-09-06T09:42:50.923Z,19.63
2018-09-06T09:43:50.995Z,19.66
2018-09-06T09:44:51.063Z,19.64
2018-09-06T09:45:51.119Z,19.66
2018-09-06T09:48:23.363Z,19.52
2018-09-06T09:49:23.598Z,19.51
2018-09-06T09:51:55.659Z,19.52
2018-09-06T09:52:55.720Z,19.63
2018-09-06T09:53:55.783Z,19.58
2018-09-06T09:54:56.000Z,19.64
2018-09-06T09:55:55.915Z,19.67
2018-09-06T09:56:56.036Z,19.69
2018-09-06T09:57:56.050Z,19.67
2018-09-06T09:58:56.111Z,19.66
2018-09-06T09:59:56.284Z,19.64
2018-09-06T10:00:56.246Z,19.64
2018-09-06T10:01:56.304Z,19.62
2018-09-06T10:02:56.371Z,19.63
2018-09-06T10:03:56.436Z,19.66
2018-09-06T10:04:56.512Z,19.67
2018-09-06T10:05:56.580Z,19.62
2018-09-06T10:06:56.636Z,19.66
2018-09-06T10:07:56.700Z,19.64
2018-09-06T10:08:56.764Z,19.56
2018-09-06T10:09:56.836Z,19.63
2018-09-06T10:10:56.904Z,19.63
2018-09-06T10:11:56.960Z,19.62
2018-09-06T10:12:57.032Z,19.66
2018-09-06T10:13:57.092Z,19.58
2018-09-06T10:14:57.156Z,19.67
2018-09-06T10:15:57.488Z,19.69
2018-09-06T10:16:57.288Z,19.70
2018-09-06T10:17:57.353Z,19.64
2018-09-06T10:18:57.423Z,19.70
2018-09-06T10:19:57.484Z,19.63
2018-09-06T10:20:57.597Z,19.64
2018-09-06T10:21:57.621Z,19.63
2018-09-06T10:22:57.680Z,19.56
2018-09-06T10:23:57.745Z,19.62
2018-09-06T10:24:57.812Z,19.54
2018-09-06T10:25:57.884Z,19.54
2018-09-06T10:26:57.954Z,19.55
2018-09-06T10:27:58.009Z,19.47
2018-09-06T10:28:58.072Z,19.52
2018-09-06T10:29:58.142Z,19.48
2018-09-06T10:30:58.320Z,19.52
2018-09-06T10:31:58.268Z,19.55
2018-09-06T10:32:58.336Z,19.59
2018-09-06T10:33:58.400Z,19.69
2018-09-06T10:34:58.464Z,19.63
2018-09-06T10:35:58.537Z,19.67
2018-09-06T10:36:58.604Z,19.81
2018-09-06T10:37:58.661Z,19.85
2018-09-06T10:38:58.731Z,19.76
2018-09-06T10:39:58.837Z,19.88
2018-09-06T10:40:58.869Z,20.00
2018-09-06T10:41:58.929Z,20.02
2018-09-06T10:42:58.990Z,20.09
2018-09-06T10:43:59.053Z,20.18
2018-09-06T10:44:59.121Z,20.22
2018-09-06T10:45:59.280Z,20.18
2018-09-06T10:46:59.253Z,20.25
2018-09-06T10:47:59.356Z,20.34
2018-09-06T10:48:59.382Z,20.31
2018-09-06T10:49:59.450Z,20.32
2018-09-06T10:50:59.521Z,20.28
2018-09-06T10:51:59.587Z,20.28
2018-09-06T10:52:59.646Z,20.31
2018-09-06T10:53:59.710Z,20.37
2018-09-06T10:54:59.778Z,20.48
2018-09-06T10:55:59.850Z,20.52
2018-09-06T10:56:59.913Z,20.58
2018-09-06T10:57:59.974Z,20.58
2018-09-06T10:59:00.039Z,20.58
2018-09-06T11:00:00.110Z,20.52
2018-09-06T11:01:00.322Z,20.56
2018-09-06T11:02:00.242Z,20.59
2018-09-06T11:03:00.302Z,20.59
2018-09-06T11:04:00.366Z,20.65
2018-09-06T11:05:00.434Z,20.74
2018-09-06T11:06:00.506Z,20.72
2018-09-06T11:07:00.574Z,20.70
2018-09-06T11:08:00.670Z,20.69
2018-09-06T11:09:00.699Z,20.69
2018-09-06T11:10:00.762Z,20.74
2018-09-06T11:11:00.835Z,20.74
2018-09-06T11:12:00.903Z,20.62
2018-09-06T11:13:00.962Z,20.59
2018-09-06T11:14:01.026Z,20.69
2018-09-06T11:15:01.160Z,20.59
2018-09-06T11:16:01.247Z,20.62
2018-09-06T11:17:01.223Z,20.63
2018-09-06T11:18:01.309Z,20.59
2018-09-06T11:19:01.358Z,20.62
2018-09-06T11:20:01.425Z,20.44
2018-09-06T11:21:01.513Z,20.50
2018-09-06T11:22:01.859Z,20.48
2018-09-06T11:23:01.619Z,20.36
2018-09-06T11:24:01.691Z,20.39
2018-09-06T11:25:01.752Z,20.37
2018-09-06T11:26:01.827Z,20.32
2018-09-06T11:27:01.891Z,20.34
2018-09-06T11:28:01.947Z,20.21
2018-09-06T11:29:02.015Z,20.16
2018-09-06T11:30:02.081Z,20.18
2018-09-06T11:31:02.254Z,20.26
2018-09-06T11:32:02.210Z,20.31
2018-09-06T11:33:02.279Z,20.32
2018-09-06T11:34:02.345Z,20.34
2018-09-06T11:35:02.411Z,20.41
2018-09-06T11:36:02.483Z,20.62
2018-09-06T11:37:02.549Z,20.60
2018-09-06T11:38:02.607Z,20.69
2018-09-06T11:39:02.671Z,20.66
2018-09-06T11:40:02.757Z,20.52
2018-09-06T11:41:02.815Z,20.65
2018-09-06T11:42:02.880Z,20.62
2018-09-06T11:43:02.935Z,20.59
2018-09-06T11:44:03.034Z,20.55
2018-09-06T11:45:03.082Z,20.37
2018-09-06T11:46:03.286Z,20.51
2018-09-06T11:47:03.205Z,20.31
2018-09-06T11:48:03.268Z,20.37
2018-09-06T11:49:03.332Z,20.32
2018-09-06T11:50:03.422Z,20.41
2018-09-06T11:51:03.471Z,20.47
2018-09-06T11:52:03.536Z,20.48
2018-09-06T11:53:03.596Z,20.59
2018-09-06T11:54:03.664Z,20.56
2018-09-06T11:55:03.732Z,20.60
2018-09-06T11:56:03.800Z,20.63
2018-09-06T11:57:03.869Z,20.69
2018-09-06T11:58:03.928Z,20.65
2018-09-06T11:59:03.992Z,20.75
2018-09-06T12:00:04.056Z,20.75
2018-09-06T12:01:04.396Z,20.78
2018-09-06T12:02:04.199Z,20.88
2018-09-06T12:03:04.256Z,20.84
2018-09-06T12:04:04.320Z,20.84
2018-09-06T12:05:04.389Z,20.77
2018-09-06T12:06:04.515Z,20.63
2018-09-06T12:07:04.528Z,20.66
2018-09-06T12:08:04.588Z,20.59
2018-09-06T12:09:04.652Z,20.59
2018-09-06T12:10:04.724Z,20.60
2018-09-06T12:11:04.792Z,20.56
2018-09-06T12:12:04.856Z,20.62
2018-09-06T12:13:04.917Z,20.59
2018-09-06T12:14:04.985Z,20.62
2018-09-06T12:15:05.049Z,20.58
2018-09-06T12:16:05.301Z,20.63
2018-09-06T12:17:05.187Z,20.70
2018-09-06T12:18:05.249Z,20.78
2018-09-06T12:19:05.313Z,20.80
2018-09-06T12:20:05.385Z,20.84
2018-09-06T12:21:05.454Z,20.81
2018-09-06T12:22:05.517Z,20.88
2018-09-06T12:23:05.573Z,20.84
2018-09-06T12:24:05.645Z,20.92
2018-09-06T12:25:05.712Z,20.99
2018-09-06T12:26:05.783Z,20.90
2018-09-06T12:27:05.849Z,20.90
2018-09-06T12:28:05.909Z,20.90
2018-09-06T12:29:05.973Z,20.97
2018-09-06T12:30:06.041Z,20.96
2018-09-06T12:31:06.350Z,20.97
2018-09-06T12:32:06.201Z,21.05
2018-09-06T12:33:06.252Z,21.15
2018-09-06T12:34:06.305Z,21.20
2018-09-06T12:35:06.370Z,21.24
2018-09-06T12:36:06.446Z,21.37
2018-09-06T12:37:06.510Z,21.52
2018-09-06T12:38:06.606Z,21.62
2018-09-06T12:39:06.640Z,21.75
2018-09-06T12:40:06.702Z,21.76
2018-09-06T12:41:06.774Z,21.92
2018-09-06T12:42:06.863Z,22.17
2018-09-06T12:43:06.906Z,22.25
2018-09-06T12:44:06.982Z,22.26
2018-09-06T12:45:07.042Z,22.48
2018-09-06T12:46:07.210Z,22.47
2018-09-06T12:47:07.166Z,22.50
2018-09-06T12:48:07.242Z,22.48
2018-09-06T12:49:07.298Z,22.54
2018-09-06T12:50:07.366Z,22.55
2018-09-06T12:51:07.442Z,22.54
2018-09-06T12:52:07.507Z,22.60
2018-09-06T12:53:07.566Z,22.47
2018-09-06T12:54:07.634Z,22.50
2018-09-06T12:55:07.703Z,22.45
2018-09-06T12:56:07.780Z,22.33